sensor_id;sensor_type;location;lat;lon;timestamp;pressure;altitude;pressure_sealevel;temperature;humidity
9187;BME280;7273;48.902;9.410;2022-10-16T00:01:18;97894.09;;;15.74;90.07
9187;BME280;7273;48.902;9.410;2022-10-16T00:03:45;97894.72;;;15.71;90.22
9187;BME280;7273;48.902;9.410;2022-10-16T00:06:11;97911.72;;;15.76;90.17
9187;BME280;7273;48.902;9.410;2022-10-16T00:08:37;97909.00;;;15.76;90.19
9187;BME280;7273;48.902;9.410;2022-10-16T00:11:09;97907.09;;;15.77;90.22
9187;BME280;7273;48.902;9.410;2022-10-16T00:13:37;97907.59;;;15.79;90.08
9187;BME280;7273;48.902;9.410;2022-10-16T00:16:03;97905.06;;;15.82;89.68
9187;BME280;7273;48.902;9.410;2022-10-16T00:18:29;97901.19;;;15.83;90.01
9187;BME280;7273;48.902;9.410;2022-10-16T00:20:55;97898.16;;;15.85;90.18
9187;BME280;7273;48.902;9.410;2022-10-16T00:23:21;97892.38;;;15.86;90.27
9187;BME280;7273;48.902;9.410;2022-10-16T00:25:57;97896.41;;;15.89;90.25
9187;BME280;7273;48.902;9.410;2022-10-16T00:28:23;97898.97;;;15.85;90.53
9187;BME280;7273;48.902;9.410;2022-10-16T00:30:49;97903.59;;;15.85;90.75
9187;BME280;7273;48.902;9.410;2022-10-16T00:33:14;97902.00;;;15.84;90.96
9187;BME280;7273;48.902;9.410;2022-10-16T00:35:40;97892.38;;;15.86;90.99
9187;BME280;7273;48.902;9.410;2022-10-16T00:38:05;97883.69;;;15.84;90.99
9187;BME280;7273;48.902;9.410;2022-10-16T00:40:31;97889.97;;;15.85;91.10
9187;BME280;7273;48.902;9.410;2022-10-16T00:42:57;97894.59;;;15.84;91.25
9187;BME280;7273;48.902;9.410;2022-10-16T00:45:22;97898.16;;;15.85;91.09
9187;BME280;7273;48.902;9.410;2022-10-16T00:47:49;97894.31;;;15.86;90.83
9187;BME280;7273;48.902;9.410;2022-10-16T00:52:49;97910.84;;;15.89;90.75
9187;BME280;7273;48.902;9.410;2022-10-16T00:55:16;97906.06;;;15.95;90.63
9187;BME280;7273;48.902;9.410;2022-10-16T00:57:42;97911.50;;;15.95;90.44
9187;BME280;7273;48.902;9.410;2022-10-16T01:00:11;97907.97;;;15.94;90.49
9187;BME280;7273;48.902;9.410;2022-10-16T01:02:37;97915.53;;;15.97;90.29
9187;BME280;7273;48.902;9.410;2022-10-16T01:05:03;97914.09;;;16.00;90.25
9187;BME280;7273;48.902;9.410;2022-10-16T01:10:14;97909.47;;;16.00;90.13
9187;BME280;7273;48.902;9.410;2022-10-16T01:12:58;97914.91;;;16.00;89.91
9187;BME280;7273;48.902;9.410;2022-10-16T01:15:27;97918.88;;;15.94;90.24
9187;BME280;7273;48.902;9.410;2022-10-16T01:18:14;97928.69;;;15.95;90.31
9187;BME280;7273;48.902;9.410;2022-10-16T01:20:56;97932.69;;;15.98;90.17
9187;BME280;7273;48.902;9.410;2022-10-16T01:31:39;97922.78;;;16.02;89.87
9187;BME280;7273;48.902;9.410;2022-10-16T01:34:10;97915.06;;;16.04;89.89
9187;BME280;7273;48.902;9.410;2022-10-16T01:36:53;97904.97;;;16.04;89.78
9187;BME280;7273;48.902;9.410;2022-10-16T01:39:24;97908.81;;;16.03;89.95
9187;BME280;7273;48.902;9.410;2022-10-16T01:41:55;97911.56;;;16.03;89.97
9187;BME280;7273;48.902;9.410;2022-10-16T01:44:26;97913.97;;;16.05;89.95
9187;BME280;7273;48.902;9.410;2022-10-16T01:46:54;97917.19;;;16.07;89.71
9187;BME280;7273;48.902;9.410;2022-10-16T01:49:22;97916.38;;;16.06;89.54
9187;BME280;7273;48.902;9.410;2022-10-16T01:51:50;97910.28;;;16.09;89.65
9187;BME280;7273;48.902;9.410;2022-10-16T01:54:19;97910.91;;;16.06;89.86
9187;BME280;7273;48.902;9.410;2022-10-16T01:56:46;97913.31;;;16.08;89.78
9187;BME280;7273;48.902;9.410;2022-10-16T01:59:16;97914.13;;;16.08;89.78
9187;BME280;7273;48.902;9.410;2022-10-16T02:01:48;97912.50;;;16.07;89.78
9187;BME280;7273;48.902;9.410;2022-10-16T02:04:21;97911.41;;;16.08;89.69
9187;BME280;7273;48.902;9.410;2022-10-16T02:06:48;97910.59;;;16.08;89.58
9187;BME280;7273;48.902;9.410;2022-10-16T02:09:14;97905.63;;;16.10;89.57
9187;BME280;7273;48.902;9.410;2022-10-16T02:11:42;97898.88;;;16.07;89.63
9187;BME280;7273;48.902;9.410;2022-10-16T02:14:08;97899.50;;;16.04;89.99
9187;BME280;7273;48.902;9.410;2022-10-16T02:16:45;97896.16;;;16.07;89.81
9187;BME280;7273;48.902;9.410;2022-10-16T02:19:13;97893.09;;;16.09;89.72
9187;BME280;7273;48.902;9.410;2022-10-16T02:21:49;97896.97;;;16.08;89.51
9187;BME280;7273;48.902;9.410;2022-10-16T02:24:24;97899.69;;;16.08;89.71
9187;BME280;7273;48.902;9.410;2022-10-16T02:27:18;97908.69;;;16.08;89.70
9187;BME280;7273;48.902;9.410;2022-10-16T02:29:49;97904.81;;;16.09;89.65
9187;BME280;7273;48.902;9.410;2022-10-16T02:32:21;97904.50;;;16.11;89.59
9187;BME280;7273;48.902;9.410;2022-10-16T02:34:48;97913.19;;;16.13;89.49
9187;BME280;7273;48.902;9.410;2022-10-16T02:37:14;97904.19;;;16.12;89.54
9187;BME280;7273;48.902;9.410;2022-10-16T02:39:41;97910.13;;;16.14;89.52
9187;BME280;7273;48.902;9.410;2022-10-16T02:42:11;97916.41;;;16.15;89.41
9187;BME280;7273;48.902;9.410;2022-10-16T02:44:37;97911.59;;;16.12;89.62
9187;BME280;7273;48.902;9.410;2022-10-16T02:47:02;97909.31;;;16.14;89.80
9187;BME280;7273;48.902;9.410;2022-10-16T02:49:27;97908.22;;;16.15;89.59
9187;BME280;7273;48.902;9.410;2022-10-16T02:51:53;97906.59;;;16.14;89.77
9187;BME280;7273;48.902;9.410;2022-10-16T02:54:18;97903.69;;;16.10;89.80
9187;BME280;7273;48.902;9.410;2022-10-16T02:56:44;97912.19;;;16.09;90.09
9187;BME280;7273;48.902;9.410;2022-10-16T02:59:09;97900.00;;;16.06;90.15
9187;BME280;7273;48.902;9.410;2022-10-16T03:01:35;97904.66;;;16.06;90.36
9187;BME280;7273;48.902;9.410;2022-10-16T03:04:00;97909.91;;;16.02;90.42
9187;BME280;7273;48.902;9.410;2022-10-16T03:06:26;97908.31;;;16.01;90.64
9187;BME280;7273;48.902;9.410;2022-10-16T03:08:51;97915.22;;;15.99;90.67
9187;BME280;7273;48.902;9.410;2022-10-16T03:11:16;97909.91;;;15.94;90.79
9187;BME280;7273;48.902;9.410;2022-10-16T03:13:42;97917.91;;;15.90;90.72
9187;BME280;7273;48.902;9.410;2022-10-16T03:16:07;97918.56;;;15.87;90.93
9187;BME280;7273;48.902;9.410;2022-10-16T03:18:33;97921.59;;;15.86;91.21
9187;BME280;7273;48.902;9.410;2022-10-16T03:20:58;97923.00;;;15.83;91.23
9187;BME280;7273;48.902;9.410;2022-10-16T03:23:24;97925.72;;;15.83;91.40
9187;BME280;7273;48.902;9.410;2022-10-16T03:25:49;97921.41;;;15.82;91.22
9187;BME280;7273;48.902;9.410;2022-10-16T03:28:14;97919.00;;;15.81;91.46
9187;BME280;7273;48.902;9.410;2022-10-16T03:30:40;97922.66;;;15.76;91.42
9187;BME280;7273;48.902;9.410;2022-10-16T03:33:05;97919.91;;;15.76;91.45
9187;BME280;7273;48.902;9.410;2022-10-16T03:35:31;97924.41;;;15.72;91.38
9187;BME280;7273;48.902;9.410;2022-10-16T03:37:58;97921.50;;;15.69;91.60
9187;BME280;7273;48.902;9.410;2022-10-16T03:40:23;97922.75;;;15.63;91.49
9187;BME280;7273;48.902;9.410;2022-10-16T03:42:49;97922.75;;;15.63;91.65
9187;BME280;7273;48.902;9.410;2022-10-16T03:45:14;97919.34;;;15.57;91.66
9187;BME280;7273;48.902;9.410;2022-10-16T03:47:39;97923.97;;;15.57;91.90
9187;BME280;7273;48.902;9.410;2022-10-16T03:50:06;97936.13;;;15.51;91.99
9187;BME280;7273;48.902;9.410;2022-10-16T03:52:32;97933.22;;;15.47;91.91
9187;BME280;7273;48.902;9.410;2022-10-16T03:54:58;97933.53;;;15.46;91.79
9187;BME280;7273;48.902;9.410;2022-10-16T03:57:23;97924.38;;;15.42;92.00
9187;BME280;7273;48.902;9.410;2022-10-16T03:59:49;97924.66;;;15.40;92.07
9187;BME280;7273;48.902;9.410;2022-10-16T04:02:14;97934.25;;;15.38;92.05
9187;BME280;7273;48.902;9.410;2022-10-16T04:04:40;97930.22;;;15.35;92.30
9187;BME280;7273;48.902;9.410;2022-10-16T04:07:05;97923.47;;;15.33;92.38
9187;BME280;7273;48.902;9.410;2022-10-16T04:09:30;97930.38;;;15.30;92.30
9187;BME280;7273;48.902;9.410;2022-10-16T04:11:56;97926.00;;;15.29;92.43
9187;BME280;7273;48.902;9.410;2022-10-16T04:14:21;97930.97;;;15.27;92.16
9187;BME280;7273;48.902;9.410;2022-10-16T04:16:47;97943.81;;;15.27;92.25
9187;BME280;7273;48.902;9.410;2022-10-16T04:19:12;97942.28;;;15.21;92.47
9187;BME280;7273;48.902;9.410;2022-10-16T04:21:38;97941.19;;;15.22;92.26
9187;BME280;7273;48.902;9.410;2022-10-16T04:24:04;97939.88;;;15.19;92.32
9187;BME280;7273;48.902;9.410;2022-10-16T04:26:29;97948.06;;;15.19;92.60
9187;BME280;7273;48.902;9.410;2022-10-16T04:28:55;97947.06;;;15.15;92.38
9187;BME280;7273;48.902;9.410;2022-10-16T04:31:21;97948.69;;;15.16;92.38
9187;BME280;7273;48.902;9.410;2022-10-16T04:33:47;97949.81;;;15.15;92.36
9187;BME280;7273;48.902;9.410;2022-10-16T04:36:12;97949.59;;;15.12;92.25
9187;BME280;7273;48.902;9.410;2022-10-16T04:38:38;97952.63;;;15.10;92.49
9187;BME280;7273;48.902;9.410;2022-10-16T04:41:05;97949.53;;;15.03;92.61
9187;BME280;7273;48.902;9.410;2022-10-16T04:43:30;97949.63;;;14.98;92.36
9187;BME280;7273;48.902;9.410;2022-10-16T04:45:55;97957.31;;;14.96;92.86
9187;BME280;7273;48.902;9.410;2022-10-16T04:48:21;97953.69;;;15.01;92.82
9187;BME280;7273;48.902;9.410;2022-10-16T04:50:47;97960.53;;;14.98;92.82
9187;BME280;7273;48.902;9.410;2022-10-16T04:53:12;97963.47;;;15.02;92.79
9187;BME280;7273;48.902;9.410;2022-10-16T04:55:38;97974.84;;;15.04;92.62
9187;BME280;7273;48.902;9.410;2022-10-16T04:58:04;97970.50;;;15.03;92.64
9187;BME280;7273;48.902;9.410;2022-10-16T05:00:30;97964.75;;;15.04;92.70
9187;BME280;7273;48.902;9.410;2022-10-16T05:02:56;97968.59;;;15.03;92.52
9187;BME280;7273;48.902;9.410;2022-10-16T05:05:22;97972.25;;;14.99;92.66
9187;BME280;7273;48.902;9.410;2022-10-16T05:07:48;97974.34;;;15.02;92.67
9187;BME280;7273;48.902;9.410;2022-10-16T05:10:15;97979.28;;;15.00;92.65
9187;BME280;7273;48.902;9.410;2022-10-16T05:12:41;97990.69;;;15.02;92.82
9187;BME280;7273;48.902;9.410;2022-10-16T05:15:06;97984.44;;;15.01;92.86
9187;BME280;7273;48.902;9.410;2022-10-16T05:17:32;97986.38;;;15.01;92.70
9187;BME280;7273;48.902;9.410;2022-10-16T05:19:57;97993.94;;;15.04;92.72
9187;BME280;7273;48.902;9.410;2022-10-16T05:22:23;97997.56;;;14.99;92.64
9187;BME280;7273;48.902;9.410;2022-10-16T05:24:48;97985.56;;;15.00;92.77
9187;BME280;7273;48.902;9.410;2022-10-16T05:27:14;97980.63;;;15.02;92.78
9187;BME280;7273;48.902;9.410;2022-10-16T05:29:47;97981.50;;;14.98;92.58
9187;BME280;7273;48.902;9.410;2022-10-16T05:32:16;97972.06;;;14.95;92.75
9187;BME280;7273;48.902;9.410;2022-10-16T05:34:42;97969.31;;;14.95;92.81
9187;BME280;7273;48.902;9.410;2022-10-16T05:37:08;97976.06;;;14.98;92.81
9187;BME280;7273;48.902;9.410;2022-10-16T05:39:34;97979.78;;;15.02;92.80
9187;BME280;7273;48.902;9.410;2022-10-16T05:41:59;97983.66;;;15.01;92.83
9187;BME280;7273;48.902;9.410;2022-10-16T05:44:25;97983.34;;;15.02;92.58
9187;BME280;7273;48.902;9.410;2022-10-16T05:46:50;97982.22;;;15.03;92.73
9187;BME280;7273;48.902;9.410;2022-10-16T05:49:16;97981.91;;;15.05;92.53
9187;BME280;7273;48.902;9.410;2022-10-16T05:51:41;97993.09;;;15.03;92.71
9187;BME280;7273;48.902;9.410;2022-10-16T05:54:07;97993.41;;;15.02;92.53
9187;BME280;7273;48.902;9.410;2022-10-16T05:56:33;98002.22;;;14.99;92.70
9187;BME280;7273;48.902;9.410;2022-10-16T05:58:58;97997.84;;;14.98;92.74
9187;BME280;7273;48.902;9.410;2022-10-16T06:01:24;98001.69;;;14.97;92.70
9187;BME280;7273;48.902;9.410;2022-10-16T06:03:53;97998.66;;;14.98;92.55
9187;BME280;7273;48.902;9.410;2022-10-16T06:06:21;97999.47;;;14.99;92.62
9187;BME280;7273;48.902;9.410;2022-10-16T06:08:46;98010.69;;;14.97;93.19
9187;BME280;7273;48.902;9.410;2022-10-16T06:11:15;98021.88;;;14.96;92.89
9187;BME280;7273;48.902;9.410;2022-10-16T06:13:41;98015.00;;;14.98;92.75
9187;BME280;7273;48.902;9.410;2022-10-16T06:16:08;98013.72;;;14.96;92.56
9187;BME280;7273;48.902;9.410;2022-10-16T06:18:34;98016.25;;;14.92;92.75
9187;BME280;7273;48.902;9.410;2022-10-16T06:21:09;98018.66;;;14.94;92.86
9187;BME280;7273;48.902;9.410;2022-10-16T06:23:35;98021.28;;;14.99;92.91
9187;BME280;7273;48.902;9.410;2022-10-16T06:26:09;98019.84;;;15.01;93.01
9187;BME280;7273;48.902;9.410;2022-10-16T06:28:34;98026.59;;;15.04;93.05
9187;BME280;7273;48.902;9.410;2022-10-16T06:31:01;98031.25;;;15.03;92.89
9187;BME280;7273;48.902;9.410;2022-10-16T06:33:27;98039.59;;;15.07;93.16
9187;BME280;7273;48.902;9.410;2022-10-16T06:35:52;98031.94;;;15.09;93.04
9187;BME280;7273;48.902;9.410;2022-10-16T06:38:17;98039.59;;;15.07;92.80
9187;BME280;7273;48.902;9.410;2022-10-16T06:40:43;98031.13;;;15.08;92.95
9187;BME280;7273;48.902;9.410;2022-10-16T06:43:08;98033.03;;;15.08;92.84
9187;BME280;7273;48.902;9.410;2022-10-16T06:45:34;98031.13;;;15.08;92.98
9187;BME280;7273;48.902;9.410;2022-10-16T06:47:59;98031.84;;;15.14;93.20
9187;BME280;7273;48.902;9.410;2022-10-16T06:50:25;98039.91;;;15.19;93.00
9187;BME280;7273;48.902;9.410;2022-10-16T06:52:50;98038.16;;;15.23;92.97
9187;BME280;7273;48.902;9.410;2022-10-16T06:55:16;98045.72;;;15.26;93.04
9187;BME280;7273;48.902;9.410;2022-10-16T06:57:42;98042.88;;;15.31;92.92
9187;BME280;7273;48.902;9.410;2022-10-16T07:00:09;98050.13;;;15.35;93.10
9187;BME280;7273;48.902;9.410;2022-10-16T07:02:34;98051.97;;;15.40;92.91
9187;BME280;7273;48.902;9.410;2022-10-16T07:05:00;98061.13;;;15.44;92.93
9187;BME280;7273;48.902;9.410;2022-10-16T07:07:25;98068.22;;;15.45;92.89
9187;BME280;7273;48.902;9.410;2022-10-16T07:09:51;98076.28;;;15.50;93.01
9187;BME280;7273;48.902;9.410;2022-10-16T07:12:17;98079.47;;;15.52;92.88
9187;BME280;7273;48.902;9.410;2022-10-16T07:14:42;98077.75;;;15.56;93.00
9187;BME280;7273;48.902;9.410;2022-10-16T07:17:08;98083.91;;;15.61;93.04
9187;BME280;7273;48.902;9.410;2022-10-16T07:19:33;98089.22;;;15.66;92.90
9187;BME280;7273;48.902;9.410;2022-10-16T07:21:59;98085.59;;;15.71;92.88
9187;BME280;7273;48.902;9.410;2022-10-16T07:24:24;98095.75;;;15.79;92.99
9187;BME280;7273;48.902;9.410;2022-10-16T07:26:50;98101.09;;;15.84;92.90
9187;BME280;7273;48.902;9.410;2022-10-16T07:29:20;98092.16;;;15.92;92.54
9187;BME280;7273;48.902;9.410;2022-10-16T07:31:47;98099.41;;;15.96;92.52
9187;BME280;7273;48.902;9.410;2022-10-16T07:34:14;98103.94;;;16.01;92.58
9187;BME280;7273;48.902;9.410;2022-10-16T07:36:40;98107.47;;;16.01;92.51
9187;BME280;7273;48.902;9.410;2022-10-16T07:39:06;98106.84;;;16.04;92.42
9187;BME280;7273;48.902;9.410;2022-10-16T07:41:31;98108.16;;;16.07;92.66
9187;BME280;7273;48.902;9.410;2022-10-16T07:43:58;98120.38;;;16.09;92.56
9187;BME280;7273;48.902;9.410;2022-10-16T07:46:25;98126.34;;;16.11;92.45
9187;BME280;7273;48.902;9.410;2022-10-16T07:48:51;98125.81;;;16.09;92.52
9187;BME280;7273;48.902;9.410;2022-10-16T07:51:19;98131.78;;;16.11;92.58
9187;BME280;7273;48.902;9.410;2022-10-16T07:53:46;98136.88;;;16.04;92.71
9187;BME280;7273;48.902;9.410;2022-10-16T07:56:12;98129.31;;;16.01;92.42
9187;BME280;7273;48.902;9.410;2022-10-16T07:58:38;98131.03;;;15.97;92.84
9187;BME280;7273;48.902;9.410;2022-10-16T08:01:05;98127.19;;;15.98;92.89
9187;BME280;7273;48.902;9.410;2022-10-16T08:03:31;98133.31;;;16.04;92.72
9187;BME280;7273;48.902;9.410;2022-10-16T08:05:57;98132.53;;;16.03;92.79
9187;BME280;7273;48.902;9.410;2022-10-16T08:08:23;98132.22;;;16.05;92.82
9187;BME280;7273;48.902;9.410;2022-10-16T08:10:48;98134.84;;;16.10;92.72
9187;BME280;7273;48.902;9.410;2022-10-16T08:13:14;98134.53;;;16.11;92.74
9187;BME280;7273;48.902;9.410;2022-10-16T08:15:44;98137.94;;;16.17;92.59
9187;BME280;7273;48.902;9.410;2022-10-16T08:18:11;98135.56;;;16.24;92.61
9187;BME280;7273;48.902;9.410;2022-10-16T08:20:36;98136.75;;;16.32;92.37
9187;BME280;7273;48.902;9.410;2022-10-16T08:23:02;98144.00;;;16.36;92.35
9187;BME280;7273;48.902;9.410;2022-10-16T08:25:28;98137.78;;;16.44;92.39
9187;BME280;7273;48.902;9.410;2022-10-16T08:27:53;98138.50;;;16.50;92.20
9187;BME280;7273;48.902;9.410;2022-10-16T08:30:20;98136.28;;;16.60;92.02
9187;BME280;7273;48.902;9.410;2022-10-16T08:32:46;98137.63;;;16.71;91.88
9187;BME280;7273;48.902;9.410;2022-10-16T08:35:12;98133.72;;;16.94;91.88
9187;BME280;7273;48.902;9.410;2022-10-16T08:37:38;98129.25;;;17.46;91.18
9187;BME280;7273;48.902;9.410;2022-10-16T08:40:05;98150.38;;;17.97;90.14
9187;BME280;7273;48.902;9.410;2022-10-16T08:45:08;98162.59;;;18.59;89.20
9187;BME280;7273;48.902;9.410;2022-10-16T08:47:53;98162.63;;;18.97;87.95
9187;BME280;7273;48.902;9.410;2022-10-16T08:50:26;98173.38;;;19.10;87.01
9187;BME280;7273;48.902;9.410;2022-10-16T08:52:53;98170.06;;;19.25;86.93
9187;BME280;7273;48.902;9.410;2022-10-16T08:55:29;98168.81;;;19.60;85.77
9187;BME280;7273;48.902;9.410;2022-10-16T08:57:55;98170.69;;;19.68;85.41
9187;BME280;7273;48.902;9.410;2022-10-16T09:00:21;98174.09;;;19.65;85.38
9187;BME280;7273;48.902;9.410;2022-10-16T09:10:43;98154.97;;;19.48;85.34
9187;BME280;7273;48.902;9.410;2022-10-16T09:16:04;98172.16;;;19.37;85.63
9187;BME280;7273;48.902;9.410;2022-10-16T09:18:47;98172.66;;;19.30;85.51
9187;BME280;7273;48.902;9.410;2022-10-16T09:21:26;98164.09;;;19.23;85.53
9187;BME280;7273;48.902;9.410;2022-10-16T09:23:54;98176.72;;;19.24;85.64
9187;BME280;7273;48.902;9.410;2022-10-16T09:26:22;98174.31;;;19.14;85.75
9187;BME280;7273;48.902;9.410;2022-10-16T09:28:47;98184.03;;;19.12;85.92
9187;BME280;7273;48.902;9.410;2022-10-16T09:31:18;98179.97;;;19.18;85.92
9187;BME280;7273;48.902;9.410;2022-10-16T09:33:47;98175.72;;;19.37;85.66
9187;BME280;7273;48.902;9.410;2022-10-16T09:36:14;98180.16;;;20.00;84.67
9187;BME280;7273;48.902;9.410;2022-10-16T09:38:40;98189.06;;;20.59;83.31
9187;BME280;7273;48.902;9.410;2022-10-16T09:41:21;98205.47;;;21.00;82.25
9187;BME280;7273;48.902;9.410;2022-10-16T09:43:51;98206.19;;;21.21;81.47
9187;BME280;7273;48.902;9.410;2022-10-16T09:46:33;98190.59;;;21.61;79.94
9187;BME280;7273;48.902;9.410;2022-10-16T09:49:01;98193.47;;;21.65;79.54
9187;BME280;7273;48.902;9.410;2022-10-16T09:51:32;98200.78;;;22.09;78.56
9187;BME280;7273;48.902;9.410;2022-10-16T09:54:01;98200.66;;;22.05;78.52
9187;BME280;7273;48.902;9.410;2022-10-16T09:56:30;98199.53;;;22.06;78.85
9187;BME280;7273;48.902;9.410;2022-10-16T09:59:00;98206.66;;;22.07;79.47
9187;BME280;7273;48.902;9.410;2022-10-16T10:01:45;98208.13;;;22.05;79.09
9187;BME280;7273;48.902;9.410;2022-10-16T10:04:11;98213.50;;;22.13;79.80
9187;BME280;7273;48.902;9.410;2022-10-16T10:06:43;98202.81;;;22.24;79.88
9187;BME280;7273;48.902;9.410;2022-10-16T10:11:57;98215.56;;;22.68;80.57
9187;BME280;7273;48.902;9.410;2022-10-16T10:14:45;98220.72;;;22.70;79.35
9187;BME280;7273;48.902;9.410;2022-10-16T10:20:00;98222.88;;;22.92;79.19
9187;BME280;7273;48.902;9.410;2022-10-16T10:30:23;98223.00;;;23.38;76.97
9187;BME280;7273;48.902;9.410;2022-10-16T10:33:18;98222.09;;;23.65;75.19
9187;BME280;7273;48.902;9.410;2022-10-16T10:44:23;98224.72;;;24.81;70.87
9187;BME280;7273;48.902;9.410;2022-10-16T11:01:18;98237.88;;;25.07;73.48
9187;BME280;7273;48.902;9.410;2022-10-16T11:07:11;98226.78;;;26.20;72.75
9187;BME280;7273;48.902;9.410;2022-10-16T11:09:43;98229.94;;;27.14;69.46
9187;BME280;7273;48.902;9.410;2022-10-16T11:12:16;98236.88;;;28.25;70.72
9187;BME280;7273;48.902;9.410;2022-10-16T11:17:40;98243.81;;;30.19;66.11
9187;BME280;7273;48.902;9.410;2022-10-16T11:20:20;98234.59;;;30.40;65.83
9187;BME280;7273;48.902;9.410;2022-10-16T11:27:49;98218.72;;;29.66;58.37
9187;BME280;7273;48.902;9.410;2022-10-16T11:30:24;98218.25;;;29.22;72.96
9187;BME280;7273;48.902;9.410;2022-10-16T11:33:18;98210.75;;;28.44;72.17
9187;BME280;7273;48.902;9.410;2022-10-16T11:36:00;98207.94;;;27.83;73.65
9187;BME280;7273;48.902;9.410;2022-10-16T11:40:55;98209.97;;;27.02;75.69
9187;BME280;7273;48.902;9.410;2022-10-16T11:43:29;98202.25;;;26.55;75.70
9187;BME280;7273;48.902;9.410;2022-10-16T11:46:19;98202.75;;;26.31;71.83
9187;BME280;7273;48.902;9.410;2022-10-16T11:49:10;98209.19;;;25.86;73.27
9187;BME280;7273;48.902;9.410;2022-10-16T11:52:07;98216.28;;;25.84;72.67
9187;BME280;7273;48.902;9.410;2022-10-16T11:54:43;98212.97;;;25.75;74.15
9187;BME280;7273;48.902;9.410;2022-10-16T11:57:20;98216.44;;;25.46;73.83
9187;BME280;7273;48.902;9.410;2022-10-16T12:00:17;98218.31;;;25.19;69.62
9187;BME280;7273;48.902;9.410;2022-10-16T12:03:20;98226.81;;;25.07;71.27
9187;BME280;7273;48.902;9.410;2022-10-16T12:06:11;98228.16;;;24.94;71.93
9187;BME280;7273;48.902;9.410;2022-10-16T12:08:38;98218.31;;;24.77;73.54
9187;BME280;7273;48.902;9.410;2022-10-16T12:11:24;98206.44;;;24.58;68.38
9187;BME280;7273;48.902;9.410;2022-10-16T12:14:17;98212.25;;;24.53;71.82
9187;BME280;7273;48.902;9.410;2022-10-16T12:19:19;98212.81;;;24.62;72.49
9187;BME280;7273;48.902;9.410;2022-10-16T12:21:45;98214.53;;;24.66;72.26
9187;BME280;7273;48.902;9.410;2022-10-16T12:26:46;98204.81;;;24.57;71.90
9187;BME280;7273;48.902;9.410;2022-10-16T12:31:46;98196.44;;;24.34;71.60
9187;BME280;7273;48.902;9.410;2022-10-16T12:34:37;98204.38;;;24.17;68.96
9187;BME280;7273;48.902;9.410;2022-10-16T12:37:18;98202.69;;;24.12;70.48
9187;BME280;7273;48.902;9.410;2022-10-16T12:39:47;98193.22;;;24.13;71.79
9187;BME280;7273;48.902;9.410;2022-10-16T12:42:32;98191.56;;;24.09;70.91
9187;BME280;7273;48.902;9.410;2022-10-16T12:44:59;98199.50;;;23.95;71.65
9187;BME280;7273;48.902;9.410;2022-10-16T12:49:57;98196.94;;;23.86;71.10
9187;BME280;7273;48.902;9.410;2022-10-16T12:52:37;98204.78;;;23.84;70.38
9187;BME280;7273;48.902;9.410;2022-10-16T12:55:05;98211.97;;;23.88;71.29
9187;BME280;7273;48.902;9.410;2022-10-16T12:57:43;98206.44;;;23.88;71.20
9187;BME280;7273;48.902;9.410;2022-10-16T13:17:42;98219.03;;;23.24;71.84
9187;BME280;7273;48.902;9.410;2022-10-16T13:23:36;98226.31;;;23.01;71.92
9187;BME280;7273;48.902;9.410;2022-10-16T13:28:41;98224.41;;;22.89;72.34
9187;BME280;7273;48.902;9.410;2022-10-16T13:31:20;98214.09;;;22.86;71.26
9187;BME280;7273;48.902;9.410;2022-10-16T13:33:52;98232.06;;;22.96;71.30
9187;BME280;7273;48.902;9.410;2022-10-16T13:36:44;98225.22;;;22.90;69.80
9187;BME280;7273;48.902;9.410;2022-10-16T13:39:22;98225.66;;;22.92;71.21
9187;BME280;7273;48.902;9.410;2022-10-16T13:42:07;98226.72;;;22.87;69.50
9187;BME280;7273;48.902;9.410;2022-10-16T13:44:55;98224.41;;;22.89;69.41
9187;BME280;7273;48.902;9.410;2022-10-16T13:47:26;98220.13;;;22.92;70.52
9187;BME280;7273;48.902;9.410;2022-10-16T13:50:09;98215.31;;;22.89;70.75
9187;BME280;7273;48.902;9.410;2022-10-16T13:52:36;98221.09;;;22.84;71.63
9187;BME280;7273;48.902;9.410;2022-10-16T13:55:04;98222.63;;;22.81;71.27
9187;BME280;7273;48.902;9.410;2022-10-16T13:57:30;98219.16;;;22.84;70.98
9187;BME280;7273;48.902;9.410;2022-10-16T13:59:55;98221.91;;;22.84;70.48
9187;BME280;7273;48.902;9.410;2022-10-16T14:02:33;98219.75;;;22.78;69.57
9187;BME280;7273;48.902;9.410;2022-10-16T14:05:02;98234.72;;;22.77;70.17
9187;BME280;7273;48.902;9.410;2022-10-16T14:07:33;98227.22;;;22.77;69.90
9187;BME280;7273;48.902;9.410;2022-10-16T14:10:17;98221.00;;;22.80;69.66
9187;BME280;7273;48.902;9.410;2022-10-16T14:12:44;98222.50;;;22.78;69.95
9187;BME280;7273;48.902;9.410;2022-10-16T14:15:17;98222.75;;;22.73;69.21
9187;BME280;7273;48.902;9.410;2022-10-16T14:17:43;98217.25;;;22.73;69.51
9187;BME280;7273;48.902;9.410;2022-10-16T14:20:14;98212.91;;;22.72;69.20
9187;BME280;7273;48.902;9.410;2022-10-16T14:22:43;98213.03;;;22.63;69.77
9187;BME280;7273;48.902;9.410;2022-10-16T14:30:25;98212.06;;;22.43;69.87
9187;BME280;7273;48.902;9.410;2022-10-16T14:35:37;98223.69;;;22.37;69.35
9187;BME280;7273;48.902;9.410;2022-10-16T14:38:05;98221.63;;;22.34;69.92
9187;BME280;7273;48.902;9.410;2022-10-16T14:40:34;98217.59;;;22.31;69.82
9187;BME280;7273;48.902;9.410;2022-10-16T14:43:02;98219.47;;;22.27;70.06
9187;BME280;7273;48.902;9.410;2022-10-16T14:45:30;98219.69;;;22.22;70.02
9187;BME280;7273;48.902;9.410;2022-10-16T14:48:02;98225.00;;;22.15;69.93
9187;BME280;7273;48.902;9.410;2022-10-16T14:50:28;98227.03;;;22.18;70.15
9187;BME280;7273;48.902;9.410;2022-10-16T14:52:54;98221.00;;;22.13;70.22
9187;BME280;7273;48.902;9.410;2022-10-16T14:55:20;98231.19;;;22.12;70.35
9187;BME280;7273;48.902;9.410;2022-10-16T14:57:46;98233.84;;;22.09;70.65
9187;BME280;7273;48.902;9.410;2022-10-16T15:00:20;98228.34;;;22.09;70.43
9187;BME280;7273;48.902;9.410;2022-10-16T15:02:47;98224.66;;;22.05;70.58
9187;BME280;7273;48.902;9.410;2022-10-16T15:07:42;98231.44;;;22.07;70.70
9187;BME280;7273;48.902;9.410;2022-10-16T15:10:08;98232.13;;;22.04;70.64
9187;BME280;7273;48.902;9.410;2022-10-16T15:12:34;98235.91;;;22.00;70.89
9187;BME280;7273;48.902;9.410;2022-10-16T15:14:59;98233.97;;;22.00;70.67
9187;BME280;7273;48.902;9.410;2022-10-16T15:17:25;98232.59;;;21.94;70.97
9187;BME280;7273;48.902;9.410;2022-10-16T15:19:50;98235.25;;;21.91;71.01
9187;BME280;7273;48.902;9.410;2022-10-16T15:22:16;98237.41;;;21.85;71.31
9187;BME280;7273;48.902;9.410;2022-10-16T15:24:42;98234.22;;;21.83;71.13
9187;BME280;7273;48.902;9.410;2022-10-16T15:27:07;98229.72;;;21.79;71.12
9187;BME280;7273;48.902;9.410;2022-10-16T15:29:33;98231.56;;;21.75;71.05
9187;BME280;7273;48.902;9.410;2022-10-16T15:31:58;98234.53;;;21.70;71.17
9187;BME280;7273;48.902;9.410;2022-10-16T15:34:24;98233.25;;;21.67;71.03